Spring Lake, Illinois
Current Conditions -  °F | °C
As of 9:54 AM on Thursday 30 Oct 2014 (Local Time) from KPIA Reporting Station
Overcast Overcast  
Wind Chill: 42°   Ceiling: 8000
Heat Index: 46°   Visibility: 10mi
Dew Point: 38°   Wind: 8mph
Humidity: 73%   Direction: 180°S
Pressure: 30.13"   Gusts: NA
Location:  40.3879°N, 89.7742°W
Report Text: KPIA 301454Z 18007KT 10SM BKN080 OVC110 08/03 A3013 RMK AO2 SLP208 T00780033 56004
Loading
Personal Weather Stations






























Interactive Weather Map
Tropical Storm Tracking
New forecast layout! Learn more

10-Day Weather Forecast

Advertisements
Track Severe Weather on mobile